sensor_id;sensor_type;location;lat;lon;timestamp;temperature;humidity
35603;DHT22;21725;50.836;4.368;2023-09-07T00:02:36;24.30;95.80
35603;DHT22;21725;50.836;4.368;2023-09-07T00:05:41;24.30;95.90
35603;DHT22;21725;50.836;4.368;2023-09-07T00:08:42;24.20;95.90
35603;DHT22;21725;50.836;4.368;2023-09-07T00:11:46;24.40;96.00
35603;DHT22;21725;50.836;4.368;2023-09-07T00:14:47;24.20;96.00
35603;DHT22;21725;50.836;4.368;2023-09-07T00:17:52;24.30;96.10
35603;DHT22;21725;50.836;4.368;2023-09-07T00:20:56;24.20;96.20
35603;DHT22;21725;50.836;4.368;2023-09-07T00:23:57;24.10;96.30
35603;DHT22;21725;50.836;4.368;2023-09-07T00:27:00;24.00;96.30
35603;DHT22;21725;50.836;4.368;2023-09-07T00:30:01;24.00;96.40
35603;DHT22;21725;50.836;4.368;2023-09-07T00:33:05;24.00;96.30
35603;DHT22;21725;50.836;4.368;2023-09-07T00:36:06;23.90;96.20
35603;DHT22;21725;50.836;4.368;2023-09-07T00:39:09;23.90;96.10
35603;DHT22;21725;50.836;4.368;2023-09-07T00:42:13;23.80;96.20
35603;DHT22;21725;50.836;4.368;2023-09-07T00:45:16;23.90;96.10
35603;DHT22;21725;50.836;4.368;2023-09-07T00:48:17;23.90;96.10
35603;DHT22;21725;50.836;4.368;2023-09-07T00:51:18;23.90;96.00
35603;DHT22;21725;50.836;4.368;2023-09-07T00:54:19;23.90;95.90
35603;DHT22;21725;50.836;4.368;2023-09-07T00:57:22;23.90;95.90
35603;DHT22;21725;50.836;4.368;2023-09-07T01:00:26;23.80;95.80
35603;DHT22;21725;50.836;4.368;2023-09-07T01:03:26;23.70;95.90
35603;DHT22;21725;50.836;4.368;2023-09-07T01:06:35;23.70;95.90
35603;DHT22;21725;50.836;4.368;2023-09-07T01:09:40;23.60;95.80
35603;DHT22;21725;50.836;4.368;2023-09-07T01:12:42;23.80;95.40
35603;DHT22;21725;50.836;4.368;2023-09-07T01:15:48;23.80;95.50
35603;DHT22;21725;50.836;4.368;2023-09-07T01:19:02;23.70;95.50
35603;DHT22;21725;50.836;4.368;2023-09-07T01:22:06;23.60;95.50
35603;DHT22;21725;50.836;4.368;2023-09-07T01:25:07;23.60;95.40
35603;DHT22;21725;50.836;4.368;2023-09-07T01:28:09;23.50;95.50
35603;DHT22;21725;50.836;4.368;2023-09-07T01:31:12;23.40;95.50
35603;DHT22;21725;50.836;4.368;2023-09-07T01:34:13;23.50;95.40
35603;DHT22;21725;50.836;4.368;2023-09-07T01:37:15;23.40;95.30
35603;DHT22;21725;50.836;4.368;2023-09-07T01:40:16;23.50;95.30
35603;DHT22;21725;50.836;4.368;2023-09-07T01:43:19;23.50;95.10
35603;DHT22;21725;50.836;4.368;2023-09-07T01:46:23;23.50;95.10
35603;DHT22;21725;50.836;4.368;2023-09-07T01:49:24;23.50;95.20
35603;DHT22;21725;50.836;4.368;2023-09-07T01:52:25;23.50;95.00
35603;DHT22;21725;50.836;4.368;2023-09-07T01:55:28;23.50;95.20
35603;DHT22;21725;50.836;4.368;2023-09-07T01:58:31;23.40;95.20
35603;DHT22;21725;50.836;4.368;2023-09-07T02:01:31;23.40;95.10
35603;DHT22;21725;50.836;4.368;2023-09-07T02:04:37;23.30;95.40
35603;DHT22;21725;50.836;4.368;2023-09-07T02:07:38;23.30;95.20
35603;DHT22;21725;50.836;4.368;2023-09-07T02:10:38;23.20;95.40
35603;DHT22;21725;50.836;4.368;2023-09-07T02:13:42;23.20;95.40
35603;DHT22;21725;50.836;4.368;2023-09-07T02:16:47;23.10;95.30
35603;DHT22;21725;50.836;4.368;2023-09-07T02:19:48;23.10;95.50
35603;DHT22;21725;50.836;4.368;2023-09-07T02:22:50;23.10;95.30
35603;DHT22;21725;50.836;4.368;2023-09-07T02:25:51;23.00;95.20
35603;DHT22;21725;50.836;4.368;2023-09-07T02:28:54;22.90;95.20
35603;DHT22;21725;50.836;4.368;2023-09-07T02:31:57;22.90;95.20
35603;DHT22;21725;50.836;4.368;2023-09-07T02:34:58;22.90;95.10
35603;DHT22;21725;50.836;4.368;2023-09-07T02:37:59;22.90;95.10
35603;DHT22;21725;50.836;4.368;2023-09-07T02:41:01;22.90;95.10
35603;DHT22;21725;50.836;4.368;2023-09-07T02:44:03;22.90;95.10
35603;DHT22;21725;50.836;4.368;2023-09-07T02:47:04;22.90;95.10
35603;DHT22;21725;50.836;4.368;2023-09-07T02:50:05;22.90;95.00
35603;DHT22;21725;50.836;4.368;2023-09-07T02:53:09;22.90;95.00
35603;DHT22;21725;50.836;4.368;2023-09-07T02:56:09;22.80;95.00
35603;DHT22;21725;50.836;4.368;2023-09-07T02:59:11;22.80;95.10
35603;DHT22;21725;50.836;4.368;2023-09-07T03:02:12;22.80;95.00
35603;DHT22;21725;50.836;4.368;2023-09-07T03:05:12;22.70;95.10
35603;DHT22;21725;50.836;4.368;2023-09-07T03:08:15;22.70;95.20
35603;DHT22;21725;50.836;4.368;2023-09-07T03:11:16;22.70;95.10
35603;DHT22;21725;50.836;4.368;2023-09-07T03:14:20;22.70;95.10
35603;DHT22;21725;50.836;4.368;2023-09-07T03:17:23;22.60;95.20
35603;DHT22;21725;50.836;4.368;2023-09-07T03:20:24;22.70;95.20
35603;DHT22;21725;50.836;4.368;2023-09-07T03:23:30;22.70;95.20
35603;DHT22;21725;50.836;4.368;2023-09-07T03:26:32;22.60;95.30
35603;DHT22;21725;50.836;4.368;2023-09-07T03:29:35;22.60;95.30
35603;DHT22;21725;50.836;4.368;2023-09-07T03:32:38;22.60;95.20
35603;DHT22;21725;50.836;4.368;2023-09-07T03:35:42;22.60;95.30
35603;DHT22;21725;50.836;4.368;2023-09-07T03:38:45;22.60;95.30
35603;DHT22;21725;50.836;4.368;2023-09-07T03:41:46;22.50;95.30
35603;DHT22;21725;50.836;4.368;2023-09-07T03:44:46;22.40;95.40
35603;DHT22;21725;50.836;4.368;2023-09-07T03:47:47;22.30;95.30
35603;DHT22;21725;50.836;4.368;2023-09-07T03:50:48;22.30;95.30
35603;DHT22;21725;50.836;4.368;2023-09-07T03:53:49;22.30;95.40
35603;DHT22;21725;50.836;4.368;2023-09-07T03:56:52;22.20;95.40
35603;DHT22;21725;50.836;4.368;2023-09-07T03:59:54;22.20;95.40
35603;DHT22;21725;50.836;4.368;2023-09-07T04:02:56;22.20;95.40
35603;DHT22;21725;50.836;4.368;2023-09-07T04:05:57;22.20;95.50
35603;DHT22;21725;50.836;4.368;2023-09-07T04:09:00;22.10;95.50
35603;DHT22;21725;50.836;4.368;2023-09-07T04:12:01;22.10;95.60
35603;DHT22;21725;50.836;4.368;2023-09-07T04:15:04;22.10;95.70
35603;DHT22;21725;50.836;4.368;2023-09-07T04:18:05;22.10;95.70
35603;DHT22;21725;50.836;4.368;2023-09-07T04:21:07;22.10;95.70
35603;DHT22;21725;50.836;4.368;2023-09-07T04:24:10;22.10;95.70
35603;DHT22;21725;50.836;4.368;2023-09-07T04:27:14;22.10;95.70
35603;DHT22;21725;50.836;4.368;2023-09-07T04:30:21;22.10;95.60
35603;DHT22;21725;50.836;4.368;2023-09-07T04:33:24;22.00;95.80
35603;DHT22;21725;50.836;4.368;2023-09-07T04:36:27;22.10;95.60
35603;DHT22;21725;50.836;4.368;2023-09-07T04:39:28;22.10;95.60
35603;DHT22;21725;50.836;4.368;2023-09-07T04:42:29;22.10;95.70
35603;DHT22;21725;50.836;4.368;2023-09-07T04:45:29;22.00;95.70
35603;DHT22;21725;50.836;4.368;2023-09-07T04:48:30;22.00;95.70
35603;DHT22;21725;50.836;4.368;2023-09-07T04:51:33;22.10;95.70
35603;DHT22;21725;50.836;4.368;2023-09-07T04:54:34;22.10;95.80
35603;DHT22;21725;50.836;4.368;2023-09-07T04:57:37;22.10;95.70
35603;DHT22;21725;50.836;4.368;2023-09-07T05:00:41;22.10;95.70
35603;DHT22;21725;50.836;4.368;2023-09-07T05:03:41;22.20;95.80
35603;DHT22;21725;50.836;4.368;2023-09-07T05:06:45;22.20;95.60
35603;DHT22;21725;50.836;4.368;2023-09-07T05:09:46;22.20;95.80
35603;DHT22;21725;50.836;4.368;2023-09-07T05:12:47;22.20;95.70
35603;DHT22;21725;50.836;4.368;2023-09-07T05:15:49;22.30;95.70
35603;DHT22;21725;50.836;4.368;2023-09-07T05:18:52;22.20;95.80
35603;DHT22;21725;50.836;4.368;2023-09-07T05:21:53;22.20;95.90
35603;DHT22;21725;50.836;4.368;2023-09-07T05:24:58;22.20;95.90
35603;DHT22;21725;50.836;4.368;2023-09-07T05:28:00;22.10;96.00
35603;DHT22;21725;50.836;4.368;2023-09-07T05:31:03;22.10;96.30
35603;DHT22;21725;50.836;4.368;2023-09-07T05:34:04;22.10;96.30
35603;DHT22;21725;50.836;4.368;2023-09-07T05:37:05;22.10;96.20
35603;DHT22;21725;50.836;4.368;2023-09-07T05:40:08;22.10;96.30
35603;DHT22;21725;50.836;4.368;2023-09-07T05:43:12;22.00;96.30
35603;DHT22;21725;50.836;4.368;2023-09-07T05:46:13;22.00;96.30
35603;DHT22;21725;50.836;4.368;2023-09-07T05:49:13;22.00;96.30
35603;DHT22;21725;50.836;4.368;2023-09-07T05:52:15;22.00;96.10
35603;DHT22;21725;50.836;4.368;2023-09-07T05:55:16;22.00;96.20
35603;DHT22;21725;50.836;4.368;2023-09-07T05:58:19;21.90;96.10
35603;DHT22;21725;50.836;4.368;2023-09-07T06:01:20;21.90;96.20
35603;DHT22;21725;50.836;4.368;2023-09-07T06:04:23;21.90;96.20
35603;DHT22;21725;50.836;4.368;2023-09-07T06:07:29;21.90;96.10
35603;DHT22;21725;50.836;4.368;2023-09-07T06:10:30;21.90;96.20
35603;DHT22;21725;50.836;4.368;2023-09-07T06:13:31;21.90;96.20
35603;DHT22;21725;50.836;4.368;2023-09-07T06:16:32;22.00;96.20
35603;DHT22;21725;50.836;4.368;2023-09-07T06:19:32;22.10;96.20
35603;DHT22;21725;50.836;4.368;2023-09-07T06:22:36;22.20;96.10
35603;DHT22;21725;50.836;4.368;2023-09-07T06:25:37;22.20;96.00
35603;DHT22;21725;50.836;4.368;2023-09-07T06:28:40;22.30;96.00
35603;DHT22;21725;50.836;4.368;2023-09-07T06:31:43;22.40;95.70
35603;DHT22;21725;50.836;4.368;2023-09-07T06:34:44;22.50;95.70
35603;DHT22;21725;50.836;4.368;2023-09-07T06:37:45;22.70;95.50
35603;DHT22;21725;50.836;4.368;2023-09-07T06:40:51;22.70;95.50
35603;DHT22;21725;50.836;4.368;2023-09-07T06:43:52;22.90;95.30
35603;DHT22;21725;50.836;4.368;2023-09-07T06:46:58;23.70;95.10
35603;DHT22;21725;50.836;4.368;2023-09-07T07:01:01;28.20;90.10
35603;DHT22;21725;50.836;4.368;2023-09-07T07:04:05;28.90;89.10
35603;DHT22;21725;50.836;4.368;2023-09-07T07:07:08;29.30;87.60
35603;DHT22;21725;50.836;4.368;2023-09-07T07:10:09;29.90;86.30
35603;DHT22;21725;50.836;4.368;2023-09-07T07:13:12;30.20;85.90
35603;DHT22;21725;50.836;4.368;2023-09-07T07:16:13;30.40;85.10
35603;DHT22;21725;50.836;4.368;2023-09-07T07:19:14;30.50;84.80
35603;DHT22;21725;50.836;4.368;2023-09-07T07:22:15;30.50;84.60
35603;DHT22;21725;50.836;4.368;2023-09-07T07:25:15;30.40;84.80
35603;DHT22;21725;50.836;4.368;2023-09-07T07:28:18;30.10;85.30
35603;DHT22;21725;50.836;4.368;2023-09-07T07:31:22;29.80;85.80
35603;DHT22;21725;50.836;4.368;2023-09-07T07:34:29;29.40;86.10
35603;DHT22;21725;50.836;4.368;2023-09-07T07:37:30;28.90;87.20
35603;DHT22;21725;50.836;4.368;2023-09-07T07:40:31;28.50;87.70
35603;DHT22;21725;50.836;4.368;2023-09-07T07:43:34;28.20;87.50
35603;DHT22;21725;50.836;4.368;2023-09-07T07:46:35;27.90;88.00
35603;DHT22;21725;50.836;4.368;2023-09-07T07:49:42;27.50;88.10
35603;DHT22;21725;50.836;4.368;2023-09-07T07:52:42;27.40;88.60
35603;DHT22;21725;50.836;4.368;2023-09-07T07:55:43;27.10;89.20
35603;DHT22;21725;50.836;4.368;2023-09-07T07:58:46;27.20;89.40
35603;DHT22;21725;50.836;4.368;2023-09-07T08:01:47;26.90;90.00
35603;DHT22;21725;50.836;4.368;2023-09-07T08:04:54;26.60;90.20
35603;DHT22;21725;50.836;4.368;2023-09-07T08:07:59;26.30;90.30
35603;DHT22;21725;50.836;4.368;2023-09-07T08:11:00;26.20;90.50
35603;DHT22;21725;50.836;4.368;2023-09-07T08:14:05;26.20;90.70
35603;DHT22;21725;50.836;4.368;2023-09-07T08:17:09;26.10;90.20
35603;DHT22;21725;50.836;4.368;2023-09-07T08:20:15;26.20;90.50
35603;DHT22;21725;50.836;4.368;2023-09-07T08:23:16;26.10;90.30
35603;DHT22;21725;50.836;4.368;2023-09-07T08:26:20;26.30;90.30
35603;DHT22;21725;50.836;4.368;2023-09-07T08:29:21;26.50;90.20
35603;DHT22;21725;50.836;4.368;2023-09-07T08:32:24;26.60;90.20
35603;DHT22;21725;50.836;4.368;2023-09-07T08:35:24;26.50;90.00
35603;DHT22;21725;50.836;4.368;2023-09-07T08:38:27;26.70;89.90
35603;DHT22;21725;50.836;4.368;2023-09-07T08:41:28;26.90;89.30
35603;DHT22;21725;50.836;4.368;2023-09-07T08:44:29;26.80;89.50
35603;DHT22;21725;50.836;4.368;2023-09-07T08:47:31;27.00;88.80
35603;DHT22;21725;50.836;4.368;2023-09-07T08:50:32;26.80;89.30
35603;DHT22;21725;50.836;4.368;2023-09-07T08:53:40;26.90;89.50
35603;DHT22;21725;50.836;4.368;2023-09-07T08:56:45;27.10;88.80
35603;DHT22;21725;50.836;4.368;2023-09-07T08:59:46;27.20;88.70
35603;DHT22;21725;50.836;4.368;2023-09-07T09:02:47;27.20;88.10
35603;DHT22;21725;50.836;4.368;2023-09-07T09:05:50;27.20;88.00
35603;DHT22;21725;50.836;4.368;2023-09-07T09:08:54;27.10;88.50
35603;DHT22;21725;50.836;4.368;2023-09-07T09:12:05;27.10;88.80
35603;DHT22;21725;50.836;4.368;2023-09-07T09:15:11;27.10;88.00
35603;DHT22;21725;50.836;4.368;2023-09-07T09:18:22;27.00;88.30
35603;DHT22;21725;50.836;4.368;2023-09-07T09:21:36;27.00;88.50
35603;DHT22;21725;50.836;4.368;2023-09-07T09:29:02;27.30;88.00
35603;DHT22;21725;50.836;4.368;2023-09-07T09:32:07;27.40;87.50
35603;DHT22;21725;50.836;4.368;2023-09-07T09:35:16;27.40;87.80
35603;DHT22;21725;50.836;4.368;2023-09-07T09:38:34;27.50;88.20
35603;DHT22;21725;50.836;4.368;2023-09-07T09:41:42;27.50;88.40
35603;DHT22;21725;50.836;4.368;2023-09-07T09:44:43;27.50;88.90
35603;DHT22;21725;50.836;4.368;2023-09-07T09:47:44;27.70;88.70
35603;DHT22;21725;50.836;4.368;2023-09-07T09:50:51;27.70;89.10
35603;DHT22;21725;50.836;4.368;2023-09-07T09:54:03;27.80;88.70
35603;DHT22;21725;50.836;4.368;2023-09-07T09:57:47;28.20;88.00
35603;DHT22;21725;50.836;4.368;2023-09-07T10:05:17;28.10;89.10
35603;DHT22;21725;50.836;4.368;2023-09-07T10:09:08;28.20;88.20
35603;DHT22;21725;50.836;4.368;2023-09-07T10:16:14;28.20;88.90
35603;DHT22;21725;50.836;4.368;2023-09-07T10:19:26;28.70;88.30
35603;DHT22;21725;50.836;4.368;2023-09-07T10:26:23;28.50;89.00
35603;DHT22;21725;50.836;4.368;2023-09-07T10:29:27;28.60;88.70
35603;DHT22;21725;50.836;4.368;2023-09-07T10:32:43;28.50;88.70
35603;DHT22;21725;50.836;4.368;2023-09-07T10:35:53;28.50;89.10
35603;DHT22;21725;50.836;4.368;2023-09-07T10:39:05;28.90;88.30
35603;DHT22;21725;50.836;4.368;2023-09-07T10:42:23;29.20;87.60
35603;DHT22;21725;50.836;4.368;2023-09-07T10:45:27;29.20;87.80
35603;DHT22;21725;50.836;4.368;2023-09-07T10:48:33;29.20;88.70
35603;DHT22;21725;50.836;4.368;2023-09-07T10:51:43;29.20;88.20
35603;DHT22;21725;50.836;4.368;2023-09-07T10:54:44;29.40;87.20
35603;DHT22;21725;50.836;4.368;2023-09-07T10:57:46;29.60;87.70
35603;DHT22;21725;50.836;4.368;2023-09-07T11:00:55;29.50;87.40
35603;DHT22;21725;50.836;4.368;2023-09-07T11:04:01;29.50;87.70
35603;DHT22;21725;50.836;4.368;2023-09-07T11:07:14;29.50;87.60
35603;DHT22;21725;50.836;4.368;2023-09-07T11:10:17;29.50;86.90
35603;DHT22;21725;50.836;4.368;2023-09-07T11:13:25;29.50;87.10
35603;DHT22;21725;50.836;4.368;2023-09-07T11:16:29;29.70;86.20
35603;DHT22;21725;50.836;4.368;2023-09-07T11:19:34;29.90;85.80
35603;DHT22;21725;50.836;4.368;2023-09-07T11:22:38;30.10;85.50
35603;DHT22;21725;50.836;4.368;2023-09-07T11:25:42;30.00;85.90
35603;DHT22;21725;50.836;4.368;2023-09-07T11:28:48;30.50;84.50
35603;DHT22;21725;50.836;4.368;2023-09-07T11:32:14;30.40;84.80
35603;DHT22;21725;50.836;4.368;2023-09-07T11:35:50;30.40;85.20
35603;DHT22;21725;50.836;4.368;2023-09-07T11:38:55;30.40;84.50
35603;DHT22;21725;50.836;4.368;2023-09-07T11:42:11;30.40;84.50
35603;DHT22;21725;50.836;4.368;2023-09-07T11:45:17;30.20;84.60
35603;DHT22;21725;50.836;4.368;2023-09-07T11:48:26;30.00;84.90
35603;DHT22;21725;50.836;4.368;2023-09-07T11:51:37;30.40;84.00
35603;DHT22;21725;50.836;4.368;2023-09-07T11:54:43;30.40;84.20
35603;DHT22;21725;50.836;4.368;2023-09-07T11:57:44;30.40;83.80
35603;DHT22;21725;50.836;4.368;2023-09-07T12:00:47;30.60;83.90
35603;DHT22;21725;50.836;4.368;2023-09-07T12:03:48;30.70;83.10
35603;DHT22;21725;50.836;4.368;2023-09-07T12:06:49;31.00;82.70
35603;DHT22;21725;50.836;4.368;2023-09-07T12:09:50;30.80;82.90
35603;DHT22;21725;50.836;4.368;2023-09-07T12:12:51;30.70;83.20
35603;DHT22;21725;50.836;4.368;2023-09-07T12:15:54;30.60;83.50
35603;DHT22;21725;50.836;4.368;2023-09-07T12:19:02;30.70;83.70
35603;DHT22;21725;50.836;4.368;2023-09-07T12:22:03;30.80;82.70
35603;DHT22;21725;50.836;4.368;2023-09-07T12:25:07;30.70;83.20
35603;DHT22;21725;50.836;4.368;2023-09-07T12:28:10;30.80;83.50
35603;DHT22;21725;50.836;4.368;2023-09-07T12:31:11;30.80;82.90
35603;DHT22;21725;50.836;4.368;2023-09-07T12:34:14;30.60;83.60
35603;DHT22;21725;50.836;4.368;2023-09-07T12:37:15;30.70;83.90
35603;DHT22;21725;50.836;4.368;2023-09-07T12:40:21;30.80;83.50
35603;DHT22;21725;50.836;4.368;2023-09-07T12:43:23;30.80;83.00
35603;DHT22;21725;50.836;4.368;2023-09-07T12:46:25;30.90;82.70
35603;DHT22;21725;50.836;4.368;2023-09-07T12:49:33;31.00;82.70
35603;DHT22;21725;50.836;4.368;2023-09-07T12:52:34;30.90;82.90
35603;DHT22;21725;50.836;4.368;2023-09-07T12:55:40;30.80;82.40
35603;DHT22;21725;50.836;4.368;2023-09-07T12:58:42;30.70;83.00
35603;DHT22;21725;50.836;4.368;2023-09-07T13:01:45;30.60;83.30
35603;DHT22;21725;50.836;4.368;2023-09-07T13:04:46;30.80;83.40
35603;DHT22;21725;50.836;4.368;2023-09-07T13:07:47;30.90;82.70
35603;DHT22;21725;50.836;4.368;2023-09-07T13:10:48;30.90;83.00
35603;DHT22;21725;50.836;4.368;2023-09-07T13:13:49;30.90;83.50
35603;DHT22;21725;50.836;4.368;2023-09-07T13:16:49;30.80;83.10
35603;DHT22;21725;50.836;4.368;2023-09-07T13:19:51;30.90;83.00
35603;DHT22;21725;50.836;4.368;2023-09-07T13:22:52;31.00;83.10
35603;DHT22;21725;50.836;4.368;2023-09-07T13:25:54;31.00;83.20
35603;DHT22;21725;50.836;4.368;2023-09-07T13:28:54;31.20;83.00
35603;DHT22;21725;50.836;4.368;2023-09-07T13:31:55;31.10;83.00
35603;DHT22;21725;50.836;4.368;2023-09-07T13:34:56;31.10;83.00
35603;DHT22;21725;50.836;4.368;2023-09-07T13:37:56;31.10;83.20
35603;DHT22;21725;50.836;4.368;2023-09-07T13:40:57;31.00;83.70
35603;DHT22;21725;50.836;4.368;2023-09-07T13:43:58;31.00;84.10
35603;DHT22;21725;50.836;4.368;2023-09-07T13:47:01;31.20;83.50
35603;DHT22;21725;50.836;4.368;2023-09-07T13:50:05;31.30;83.60
35603;DHT22;21725;50.836;4.368;2023-09-07T13:53:06;31.50;83.40
35603;DHT22;21725;50.836;4.368;2023-09-07T13:56:09;31.70;82.70
35603;DHT22;21725;50.836;4.368;2023-09-07T13:59:10;31.50;83.40
35603;DHT22;21725;50.836;4.368;2023-09-07T14:02:13;31.40;83.70
35603;DHT22;21725;50.836;4.368;2023-09-07T14:05:14;31.50;83.50
35603;DHT22;21725;50.836;4.368;2023-09-07T14:08:26;31.40;84.00
35603;DHT22;21725;50.836;4.368;2023-09-07T14:11:28;31.40;83.70
35603;DHT22;21725;50.836;4.368;2023-09-07T14:14:28;31.40;84.10
35603;DHT22;21725;50.836;4.368;2023-09-07T14:17:31;31.40;83.80
35603;DHT22;21725;50.836;4.368;2023-09-07T14:20:32;31.40;84.00
35603;DHT22;21725;50.836;4.368;2023-09-07T14:23:35;31.70;82.90
35603;DHT22;21725;50.836;4.368;2023-09-07T14:26:40;31.70;82.50
35603;DHT22;21725;50.836;4.368;2023-09-07T14:29:43;31.60;83.00
35603;DHT22;21725;50.836;4.368;2023-09-07T14:32:44;31.50;83.20
35603;DHT22;21725;50.836;4.368;2023-09-07T14:35:56;31.40;83.70
35603;DHT22;21725;50.836;4.368;2023-09-07T14:38:57;31.60;82.90
35603;DHT22;21725;50.836;4.368;2023-09-07T14:42:00;31.80;82.40
35603;DHT22;21725;50.836;4.368;2023-09-07T14:45:04;31.80;82.00
35603;DHT22;21725;50.836;4.368;2023-09-07T14:48:08;32.10;81.40
35603;DHT22;21725;50.836;4.368;2023-09-07T14:51:16;31.90;82.80
35603;DHT22;21725;50.836;4.368;2023-09-07T14:54:16;31.80;82.50
35603;DHT22;21725;50.836;4.368;2023-09-07T14:57:20;31.90;82.40
35603;DHT22;21725;50.836;4.368;2023-09-07T15:00:24;31.80;82.50
35603;DHT22;21725;50.836;4.368;2023-09-07T15:03:34;31.90;81.70
35603;DHT22;21725;50.836;4.368;2023-09-07T15:06:41;31.90;83.60
35603;DHT22;21725;50.836;4.368;2023-09-07T15:09:42;31.80;84.70
35603;DHT22;21725;50.836;4.368;2023-09-07T15:12:43;31.80;85.10
35603;DHT22;21725;50.836;4.368;2023-09-07T15:15:46;31.50;86.00
35603;DHT22;21725;50.836;4.368;2023-09-07T15:18:50;31.50;86.20
35603;DHT22;21725;50.836;4.368;2023-09-07T15:22:03;31.30;86.60
35603;DHT22;21725;50.836;4.368;2023-09-07T15:25:04;31.30;86.70
35603;DHT22;21725;50.836;4.368;2023-09-07T15:28:07;31.40;86.40
35603;DHT22;21725;50.836;4.368;2023-09-07T15:31:12;31.30;86.40
35603;DHT22;21725;50.836;4.368;2023-09-07T15:34:15;31.40;86.20
35603;DHT22;21725;50.836;4.368;2023-09-07T15:37:18;31.60;86.20
35603;DHT22;21725;50.836;4.368;2023-09-07T15:40:19;31.40;86.40
35603;DHT22;21725;50.836;4.368;2023-09-07T15:43:22;31.20;86.60
35603;DHT22;21725;50.836;4.368;2023-09-07T15:46:23;31.20;87.40
35603;DHT22;21725;50.836;4.368;2023-09-07T15:49:27;31.30;87.30
35603;DHT22;21725;50.836;4.368;2023-09-07T15:52:30;31.20;87.60
35603;DHT22;21725;50.836;4.368;2023-09-07T15:55:35;31.10;87.90
35603;DHT22;21725;50.836;4.368;2023-09-07T15:58:36;31.00;88.40
35603;DHT22;21725;50.836;4.368;2023-09-07T16:01:40;30.90;88.40
35603;DHT22;21725;50.836;4.368;2023-09-07T16:04:45;30.90;88.40
35603;DHT22;21725;50.836;4.368;2023-09-07T16:07:50;31.10;88.40
35603;DHT22;21725;50.836;4.368;2023-09-07T16:10:54;31.10;88.50
35603;DHT22;21725;50.836;4.368;2023-09-07T16:13:56;31.20;88.00
35603;DHT22;21725;50.836;4.368;2023-09-07T16:16:59;31.20;87.90
35603;DHT22;21725;50.836;4.368;2023-09-07T16:20:00;31.00;88.40
35603;DHT22;21725;50.836;4.368;2023-09-07T16:23:04;30.90;88.80
35603;DHT22;21725;50.836;4.368;2023-09-07T16:26:12;30.90;88.70
35603;DHT22;21725;50.836;4.368;2023-09-07T16:29:14;30.90;88.40
35603;DHT22;21725;50.836;4.368;2023-09-07T16:32:15;31.10;87.90
35603;DHT22;21725;50.836;4.368;2023-09-07T16:35:27;31.20;88.20
35603;DHT22;21725;50.836;4.368;2023-09-07T16:38:27;31.10;88.40
35603;DHT22;21725;50.836;4.368;2023-09-07T16:41:29;31.00;88.60
35603;DHT22;21725;50.836;4.368;2023-09-07T16:44:32;31.10;88.20
35603;DHT22;21725;50.836;4.368;2023-09-07T16:47:40;31.00;88.20
35603;DHT22;21725;50.836;4.368;2023-09-07T16:50:46;30.90;88.90
35603;DHT22;21725;50.836;4.368;2023-09-07T16:53:52;30.90;88.80
35603;DHT22;21725;50.836;4.368;2023-09-07T16:56:53;30.90;88.60
35603;DHT22;21725;50.836;4.368;2023-09-07T16:59:53;30.80;89.30
35603;DHT22;21725;50.836;4.368;2023-09-07T17:02:56;30.70;89.60
35603;DHT22;21725;50.836;4.368;2023-09-07T17:06:00;30.70;89.80
35603;DHT22;21725;50.836;4.368;2023-09-07T17:09:00;30.90;89.50
35603;DHT22;21725;50.836;4.368;2023-09-07T17:12:02;30.70;90.00
35603;DHT22;21725;50.836;4.368;2023-09-07T17:15:09;30.70;89.80
35603;DHT22;21725;50.836;4.368;2023-09-07T17:18:10;30.70;90.10
35603;DHT22;21725;50.836;4.368;2023-09-07T17:21:11;30.50;90.20
35603;DHT22;21725;50.836;4.368;2023-09-07T17:24:12;30.50;90.40
35603;DHT22;21725;50.836;4.368;2023-09-07T17:27:15;30.30;90.50
35603;DHT22;21725;50.836;4.368;2023-09-07T17:30:16;30.40;90.50
35603;DHT22;21725;50.836;4.368;2023-09-07T17:33:22;30.40;90.60
35603;DHT22;21725;50.836;4.368;2023-09-07T17:36:23;30.30;90.80
35603;DHT22;21725;50.836;4.368;2023-09-07T17:39:24;30.30;90.80
35603;DHT22;21725;50.836;4.368;2023-09-07T17:42:28;30.20;91.00
35603;DHT22;21725;50.836;4.368;2023-09-07T17:45:31;30.30;91.00
35603;DHT22;21725;50.836;4.368;2023-09-07T17:48:32;30.20;91.10
35603;DHT22;21725;50.836;4.368;2023-09-07T17:51:35;30.10;91.30
35603;DHT22;21725;50.836;4.368;2023-09-07T17:54:42;30.00;91.30
35603;DHT22;21725;50.836;4.368;2023-09-07T17:57:45;30.10;91.40
35603;DHT22;21725;50.836;4.368;2023-09-07T18:00:46;30.00;91.50
35603;DHT22;21725;50.836;4.368;2023-09-07T18:03:56;30.00;91.70
35603;DHT22;21725;50.836;4.368;2023-09-07T18:06:57;29.80;91.80
35603;DHT22;21725;50.836;4.368;2023-09-07T18:10:01;29.80;91.80
35603;DHT22;21725;50.836;4.368;2023-09-07T18:13:01;29.80;92.00
35603;DHT22;21725;50.836;4.368;2023-09-07T18:16:02;29.60;92.10
35603;DHT22;21725;50.836;4.368;2023-09-07T18:19:04;29.60;92.30
35603;DHT22;21725;50.836;4.368;2023-09-07T18:22:06;29.50;92.40
35603;DHT22;21725;50.836;4.368;2023-09-07T18:25:08;29.50;92.50
35603;DHT22;21725;50.836;4.368;2023-09-07T18:28:09;29.40;92.70
35603;DHT22;21725;50.836;4.368;2023-09-07T18:31:10;29.30;92.80
35603;DHT22;21725;50.836;4.368;2023-09-07T18:34:11;29.30;92.90
35603;DHT22;21725;50.836;4.368;2023-09-07T18:37:12;29.30;93.10
35603;DHT22;21725;50.836;4.368;2023-09-07T18:43:39;29.10;93.20
35603;DHT22;21725;50.836;4.368;2023-09-07T18:46:40;29.10;93.40
35603;DHT22;21725;50.836;4.368;2023-09-07T18:49:41;29.00;93.40
35603;DHT22;21725;50.836;4.368;2023-09-07T18:52:43;29.00;93.60
35603;DHT22;21725;50.836;4.368;2023-09-07T18:55:43;29.00;93.70
35603;DHT22;21725;50.836;4.368;2023-09-07T18:58:44;28.90;93.80
35603;DHT22;21725;50.836;4.368;2023-09-07T19:01:45;28.90;94.00
35603;DHT22;21725;50.836;4.368;2023-09-07T19:04:46;28.80;94.10
35603;DHT22;21725;50.836;4.368;2023-09-07T19:07:48;28.80;94.30
35603;DHT22;21725;50.836;4.368;2023-09-07T19:10:48;28.70;94.40
35603;DHT22;21725;50.836;4.368;2023-09-07T19:13:49;28.70;94.60
35603;DHT22;21725;50.836;4.368;2023-09-07T19:16:50;28.60;94.80
35603;DHT22;21725;50.836;4.368;2023-09-07T19:19:50;28.50;95.00
35603;DHT22;21725;50.836;4.368;2023-09-07T19:22:53;28.50;95.10
35603;DHT22;21725;50.836;4.368;2023-09-07T19:25:53;28.40;95.20
35603;DHT22;21725;50.836;4.368;2023-09-07T19:28:54;28.40;95.30
35603;DHT22;21725;50.836;4.368;2023-09-07T19:31:55;28.40;95.40
35603;DHT22;21725;50.836;4.368;2023-09-07T19:34:55;28.30;95.50
35603;DHT22;21725;50.836;4.368;2023-09-07T19:38:24;28.30;95.50
35603;DHT22;21725;50.836;4.368;2023-09-07T19:41:26;28.30;95.80
35603;DHT22;21725;50.836;4.368;2023-09-07T19:44:30;28.20;95.60
35603;DHT22;21725;50.836;4.368;2023-09-07T19:47:31;28.20;95.70
35603;DHT22;21725;50.836;4.368;2023-09-07T19:50:32;28.10;95.70